Soaring Guidance
Issued by NWS Reno, NV

Home | Current Version | Previous Version | Text Only | Print | Product List | Glossary On
Versions: 1 2 3 4 5 6 7 8 9 10 11 12 13 14 15 16
000
UXUS97 KREV 201450
SRGREV

SOARING FORECAST
NATIONAL WEATHER SERVICE - RENO NV
700 AM PST FRI JAN 20 2017

THIS SOARING FORECAST IS FOR THE EASTERN SIERRA AND WESTERN NEVADA
WITH SPECIFIC INDICES FOR THE GREATER RENO AREA.

THIS FORECAST IS PREPARED DAILY BY 700 AM AND IS NOT UPDATED.

FOR CURRENT FLIGHT CONDITIONS...FORECASTS...AND ADVISORIES...ACCESS
YOUR LOCAL BRIEFING OUTLET OR FLIGHT SERVICE STATION.

*******************************************************************
FORECASTED LOCAL INDICES FOR RENO:        TODAY     YESTERDAY
FORECASTED MAX TEMP AT RENO (DEG F).....     39          46
FORECASTED TRIGGER TEMPERATURE (DEG F)..     38          44
   EXCEEDED YESTERDAY BY
FORECASTED MAXIMUM ALTITUDE (FT MSL)....   9500        7900
FORECASTED SOARING INDEX (FPM)..........    405         237
FORECASTED K-INDEX.........VALID 18Z....     27          28
FORECASTED K-INDEX.........VALID 00Z....     29          23
FORECASTED LIFTED INDEX....VALID 18Z....      1           0
FORECASTED LIFTED INDEX....VALID 00Z....      0           2

AFTERNOON WINDS ALOFT FORECAST
MSL (FT) WIND/TEMP
9000  2431/-08
10000 2430/-10
12000 2527/-15
14000 2327/-19
16000 2227/-24
18000 2226/-29
24000 2228/-38
30000 2538/-42
34000 2756/-39
39000 2867/-41

SLIDE MOUNTAIN DATA:
     DATE       TIME     TEMP  DEWPT   RH         WIND (MPH)
                        (F)   (F)           | DIR  SPEED GUST
2017-01-20    05:50      17    16     94    | 305    1    3
2017-01-20    05:30      17    16     93    | 305    2    3
2017-01-20    05:20      17    16     93    | 305    3    8
2017-01-20    05:00      17    16     93    | 305    3    8

RENO TAF FORECAST:
KRNO 201210Z 2012/2112 16010KT P6SM VCSH SCT030 BKN060
     FM201400 16009KT 1SM -SN BR BKN012 OVC020
     FM201800 21013G24KT 6SM -SHSN FEW015 BKN030
     FM210900 23010KT P6SM VCSH FEW030 BKN060

CARSON CITY TAF FORECAST:
KCXP 201210Z 2012/2112 08007KT P6SM VCSH SCT030 BKN050
     FM201400 14007KT 1SM -SN BR BKN010 OVC018
     FM201800 16010G20KT 5SM -SHSN SCT012 BKN025
     FM210900 24009KT P6SM VCSH FEW030 BKN060

OUTLOOK FOR THE RENO-CARSON CITY-MINDEN AREA:
.SATURDAY...CLOUDY WITH ISOLATED SNOW SHOWERS. HIGHS 34 TO 39.
SOUTHWEST WINDS 10 TO 20 MPH WITH GUSTS UP TO 45 MPH.

SUNRISE AND SUNSET
JANUARY 20 2017.......SUNRISE   715 AM PST   SUNSET   506 PM PST
JANUARY 21 2017.......SUNRISE   715 AM PST   SUNSET   507 PM PST
SOARING FORECAST
NATIONAL WEATHER SERVICE - RENO NV
700 AM PST FRI JAN 20 2017

THIS SOARING FORECAST IS FOR THE EASTERN SIERRA AND WESTERN NEVADA
WITH SPECIFIC INDICES FOR THE GREATER RENO AREA.

THIS FORECAST IS PREPARED DAILY BY 700 AM AND IS NOT UPDATED.

FOR CURRENT FLIGHT CONDITIONS...FORECASTS...AND ADVISORIES...ACCESS
YOUR LOCAL BRIEFING OUTLET OR FLIGHT SERVICE STATION.

*******************************************************************
FORECASTED LOCAL INDICES FOR RENO:        TODAY     YESTERDAY
FORECASTED MAX TEMP AT RENO (DEG F).....     39          46
FORECASTED TRIGGER TEMPERATURE (DEG F)..     38          44
   EXCEEDED YESTERDAY BY
FORECASTED MAXIMUM ALTITUDE (FT MSL)....   9500        7900
FORECASTED SOARING INDEX (FPM)..........    405         237
FORECASTED K-INDEX.........VALID 18Z....     MM          28
FORECASTED K-INDEX.........VALID 00Z....     MM          23
FORECASTED LIFTED INDEX....VALID 18Z....     MM           0
FORECASTED LIFTED INDEX....VALID 00Z....     MM           2

AFTERNOON WINDS ALOFT FORECAST
MSL (FT) WIND/TEMP
9000  2431/-08
10000 2430/-10
12000 2527/-15
14000 2327/-19
16000 2227/-24
18000 2226/-29
24000 2228/-38
30000 2538/-42
34000 2756/-39
39000 2867/-41

SLIDE MOUNTAIN DATA:
     DATE       TIME     TEMP  DEWPT   RH         WIND (MPH)
                        (F)   (F)           | DIR  SPEED GUST
2017-01-20    05:50      17    16     94    | 305    1    3
2017-01-20    05:30      17    16     93    | 305    2    3
2017-01-20    05:20      17    16     93    | 305    3    8
2017-01-20    05:00      17    16     93    | 305    3    8

RENO TAF FORECAST:
KRNO 201210Z 2012/2112 16010KT P6SM VCSH SCT030 BKN060
     FM201400 16009KT 1SM -SN BR BKN012 OVC020
     FM201800 21013G24KT 6SM -SHSN FEW015 BKN030
     FM210900 23010KT P6SM VCSH FEW030 BKN060

CARSON CITY TAF FORECAST:
KCXP 201210Z 2012/2112 08007KT P6SM VCSH SCT030 BKN050
     FM201400 14007KT 1SM -SN BR BKN010 OVC018
     FM201800 16010G20KT 5SM -SHSN SCT012 BKN025
     FM210900 24009KT P6SM VCSH FEW030 BKN060

OUTLOOK FOR THE RENO-CARSON CITY-MINDEN AREA:
.SATURDAY...CLOUDY WITH ISOLATED SNOW SHOWERS. HIGHS 34 TO 39.
SOUTHWEST WINDS 10 TO 20 MPH WITH GUSTS UP TO 45 MPH.

SUNRISE AND SUNSET
JANUARY 20 2017.......SUNRISE   715 AM PST   SUNSET   506 PM PST
JANUARY 21 2017.......SUNRISE   715 AM PST   SUNSET   507 PM PST


USA.gov is the U.S. government's official web portal to all federal, state and local government web resources and services.